createdAt,value
2022-08-25T00:00:27.136Z,63.74
2022-08-25T00:01:27.166Z,64.21
2022-08-25T00:02:27.219Z,63.18
2022-08-25T00:03:27.137Z,63.54
2022-08-25T00:04:27.138Z,63.13
2022-08-25T00:05:28.528Z,63.62
2022-08-25T00:06:27.171Z,63.99
2022-08-25T00:07:27.130Z,63.79
2022-08-25T00:08:27.136Z,62.79
2022-08-25T00:09:27.132Z,63.78
2022-08-25T00:10:27.128Z,62.64
2022-08-25T00:11:27.147Z,63.14
2022-08-25T00:12:27.132Z,62.66
2022-08-25T00:13:27.131Z,63.38
2022-08-25T00:14:27.123Z,63.28
2022-08-25T00:15:27.238Z,63.8
2022-08-25T00:16:27.127Z,63.02
2022-08-25T00:17:27.140Z,63.25
2022-08-25T00:18:27.116Z,62.7
2022-08-25T00:19:27.119Z,62.99
2022-08-25T00:20:27.120Z,61.04
2022-08-25T00:21:27.134Z,61.36
2022-08-25T00:22:27.121Z,62.71
2022-08-25T00:23:27.131Z,61.75
2022-08-25T00:24:27.112Z,61.89
2022-08-25T00:25:27.108Z,61.81
2022-08-25T00:26:27.111Z,61.96
2022-08-25T00:27:27.115Z,62.28
2022-08-25T00:28:27.127Z,63.72
2022-08-25T00:29:27.111Z,64.35
2022-08-25T00:30:27.112Z,65.07
2022-08-25T00:31:37.561Z,65.04
2022-08-25T00:32:27.110Z,66.39
2022-08-25T00:33:27.123Z,66.32
2022-08-25T00:34:27.116Z,66.09
2022-08-25T00:35:27.102Z,66.8
2022-08-25T00:36:27.100Z,67.02
2022-08-25T00:37:27.106Z,67.03
2022-08-25T00:38:27.114Z,67.32
2022-08-25T00:39:27.092Z,67.16
2022-08-25T00:40:27.171Z,66.89
2022-08-25T00:41:28.089Z,67.61
2022-08-25T00:42:27.094Z,66.96
2022-08-25T00:43:27.142Z,67.18
2022-08-25T00:44:27.092Z,66.74
2022-08-25T00:45:27.093Z,67.18
2022-08-25T00:46:27.169Z,66.77
2022-08-25T00:47:27.087Z,66.18
2022-08-25T00:48:27.101Z,66
2022-08-25T00:49:27.100Z,66.22
2022-08-25T00:50:27.086Z,65.56
2022-08-25T00:51:27.086Z,65.94
2022-08-25T00:52:27.081Z,65.69
2022-08-25T00:53:27.101Z,65.95
2022-08-25T00:54:27.078Z,65.51
2022-08-25T00:55:27.096Z,65.61
2022-08-25T00:56:27.072Z,65.32
2022-08-25T00:57:33.888Z,65.01
2022-08-25T00:58:27.074Z,64.44
2022-08-25T00:59:27.075Z,65.04
2022-08-25T01:00:27.084Z,64.94
2022-08-25T01:01:27.198Z,64.69
2022-08-25T01:02:27.141Z,65.03
2022-08-25T01:03:33.149Z,65.06
2022-08-25T01:04:27.070Z,64.08
2022-08-25T01:05:27.077Z,64.59
2022-08-25T01:06:27.061Z,63.69
2022-08-25T01:07:27.063Z,64.39
2022-08-25T01:08:27.065Z,63.98
2022-08-25T01:09:27.065Z,64.28
2022-08-25T01:10:27.077Z,63.92
2022-08-25T01:11:27.059Z,64.36
2022-08-25T01:12:27.060Z,63.4
2022-08-25T01:13:27.072Z,64.17
2022-08-25T01:14:27.060Z,64.13
2022-08-25T01:15:27.181Z,64.39
2022-08-25T01:16:27.050Z,63.77
2022-08-25T01:17:27.061Z,64.39
2022-08-25T01:18:27.049Z,64.44
2022-08-25T01:19:27.049Z,64.26
2022-08-25T01:20:29.300Z,64.16
2022-08-25T01:21:27.061Z,63.46
2022-08-25T01:22:27.051Z,63
2022-08-25T01:23:27.051Z,63.78
2022-08-25T01:24:27.050Z,63.36
2022-08-25T01:25:27.041Z,63.88
2022-08-25T01:26:30.513Z,63.2
2022-08-25T01:27:27.039Z,64.01
2022-08-25T01:28:27.040Z,63.21
2022-08-25T01:29:27.038Z,64.05
2022-08-25T01:30:27.039Z,63.54
2022-08-25T01:31:27.128Z,63.38
2022-08-25T01:32:27.043Z,63.94
2022-08-25T01:33:27.046Z,63.96
2022-08-25T01:34:27.056Z,63.68
2022-08-25T01:35:27.038Z,63.91
2022-08-25T01:36:27.037Z,63.59
2022-08-25T01:37:27.046Z,63.95
2022-08-25T01:38:27.025Z,63.87
2022-08-25T01:39:27.029Z,64.01
2022-08-25T01:40:27.106Z,63.73
2022-08-25T01:41:27.018Z,63.85
2022-08-25T01:42:27.020Z,63.12
2022-08-25T01:43:27.021Z,63.77
2022-08-25T01:44:27.024Z,62.83
2022-08-25T01:45:27.031Z,63.55
2022-08-25T01:46:27.074Z,63.45
2022-08-25T01:47:27.027Z,63.65
2022-08-25T01:48:27.014Z,63.49
2022-08-25T01:49:27.019Z,63.69
2022-08-25T01:50:27.028Z,63.61
2022-08-25T01:51:27.013Z,63.35
2022-08-25T01:52:27.008Z,63.54
2022-08-25T01:53:27.016Z,63.77
2022-08-25T01:54:27.007Z,63.63
2022-08-25T01:55:27.023Z,63.51
2022-08-25T01:56:27.004Z,63.24
2022-08-25T01:57:27.010Z,63.66
2022-08-25T01:58:27.003Z,63.5
2022-08-25T01:59:27.001Z,63.63
2022-08-25T02:00:27.021Z,63.72
2022-08-25T02:01:27.096Z,63.58
2022-08-25T02:02:27.064Z,62.89
2022-08-25T02:03:26.996Z,63.44
2022-08-25T02:04:27.023Z,63.61
2022-08-25T02:05:26.997Z,63.5
2022-08-25T02:06:29.745Z,62.47
2022-08-25T02:07:26.997Z,63.21
2022-08-25T02:08:26.995Z,63.02
2022-08-25T02:09:27.009Z,63.11
2022-08-25T02:10:26.996Z,63.03
2022-08-25T02:11:26.994Z,63.09
2022-08-25T02:12:28.181Z,62.85
2022-08-25T02:13:31.478Z,63.1
2022-08-25T02:14:27.005Z,63.11
2022-08-25T02:15:27.014Z,63.36
2022-08-25T02:16:27.099Z,63.28
2022-08-25T02:17:26.983Z,63.31
2022-08-25T02:18:26.981Z,62.81
2022-08-25T02:19:26.993Z,61.03
2022-08-25T02:20:26.985Z,58.62
2022-08-25T02:21:26.980Z,61.27
2022-08-25T02:22:26.976Z,58.43
2022-08-25T02:23:26.995Z,59.11
2022-08-25T02:24:26.996Z,59.06
2022-08-25T02:25:26.969Z,59.14
2022-08-25T02:26:26.971Z,60.24
2022-08-25T02:27:26.979Z,61.03
2022-08-25T02:28:26.968Z,61.75
2022-08-25T02:29:26.976Z,61.78
2022-08-25T02:30:27.016Z,61.52
2022-08-25T02:31:26.963Z,62.67
2022-08-25T02:32:26.969Z,62.28
2022-08-25T02:33:26.967Z,62.47
2022-08-25T02:34:26.982Z,61.65
2022-08-25T02:35:26.958Z,62.9
2022-08-25T02:36:26.963Z,62.69
2022-08-25T02:37:26.961Z,63.62
2022-08-25T02:38:26.956Z,63.7
2022-08-25T02:39:26.972Z,63.11
2022-08-25T02:40:27.063Z,62.7
2022-08-25T02:41:31.049Z,63.19
2022-08-25T02:42:26.958Z,62.07
2022-08-25T02:43:26.953Z,63.7
2022-08-25T02:44:26.965Z,62.56
2022-08-25T02:45:26.966Z,62.88
2022-08-25T02:46:27.071Z,62.9
2022-08-25T02:47:27.307Z,63.6
2022-08-25T02:48:26.946Z,62.7
2022-08-25T02:49:26.944Z,63.52
2022-08-25T02:50:26.954Z,62.94
2022-08-25T02:51:26.959Z,63.85
2022-08-25T02:52:26.943Z,63.79
2022-08-25T02:53:26.937Z,63.75
2022-08-25T02:54:26.942Z,63.89
2022-08-25T02:55:26.937Z,63.91
2022-08-25T02:56:26.957Z,62.43
2022-08-25T02:57:26.940Z,62.64
2022-08-25T02:58:26.939Z,61.87
2022-08-25T02:59:26.968Z,62.61
2022-08-25T03:00:26.931Z,62
2022-08-25T03:01:28.819Z,62.82
2022-08-25T03:02:26.926Z,62.2
2022-08-25T03:03:26.929Z,63.19
2022-08-25T03:04:27.006Z,62.84
2022-08-25T03:05:26.925Z,62.73
2022-08-25T03:06:26.943Z,61.69
2022-08-25T03:07:26.945Z,62.81
2022-08-25T03:08:26.928Z,62.85
2022-08-25T03:09:26.934Z,62.83
2022-08-25T03:10:26.917Z,63.08
2022-08-25T03:11:26.946Z,62.99
2022-08-25T03:12:26.957Z,63.29
2022-08-25T03:13:26.944Z,62.75
2022-08-25T03:14:26.920Z,62.37
2022-08-25T03:15:26.935Z,62.23
2022-08-25T03:16:27.905Z,61.78
2022-08-25T03:17:26.947Z,62.51
2022-08-25T03:18:26.932Z,62.29
2022-08-25T03:19:26.921Z,62.37
2022-08-25T03:20:26.931Z,62.03
2022-08-25T03:21:26.961Z,62.9
2022-08-25T03:22:26.925Z,62.24
2022-08-25T03:23:26.941Z,62.72
2022-08-25T03:24:26.912Z,62.33
2022-08-25T03:25:26.903Z,62.52
2022-08-25T03:26:26.916Z,62.72
2022-08-25T03:27:26.907Z,62.47
2022-08-25T03:28:29.852Z,61.68
2022-08-25T03:29:26.899Z,62.17
2022-08-25T03:30:26.927Z,62.07
2022-08-25T03:31:27.037Z,62.6
2022-08-25T03:32:26.926Z,61.38
2022-08-25T03:33:26.901Z,62.64
2022-08-25T03:34:26.893Z,62.45
2022-08-25T03:35:26.929Z,62.33
2022-08-25T03:36:26.893Z,62.99
2022-08-25T03:37:26.892Z,63.31
2022-08-25T03:38:26.895Z,62.48
2022-08-25T03:39:26.903Z,62.73
2022-08-25T03:40:27.089Z,61.76
2022-08-25T03:41:28.002Z,62.58
2022-08-25T03:42:26.883Z,62
2022-08-25T03:43:26.887Z,62.35
2022-08-25T03:44:26.895Z,62.23
2022-08-25T03:45:26.977Z,62.46
2022-08-25T03:46:26.885Z,62.14
2022-08-25T03:47:26.875Z,62.88
2022-08-25T03:48:26.877Z,62.2
2022-08-25T03:49:26.947Z,62.65
2022-08-25T03:50:26.875Z,62.58
2022-08-25T03:51:26.870Z,62.63
2022-08-25T03:52:26.875Z,62.48
2022-08-25T03:53:26.878Z,62.42
2022-08-25T03:54:26.881Z,61.8
2022-08-25T03:55:26.869Z,62.52
2022-08-25T03:56:26.867Z,61.98
2022-08-25T03:57:26.886Z,62.04
2022-08-25T03:58:26.869Z,62.19
2022-08-25T03:59:26.865Z,62.4
2022-08-25T04:00:26.866Z,62.65
2022-08-25T04:01:26.958Z,62.25
2022-08-25T04:02:26.938Z,62.07
2022-08-25T04:03:26.857Z,62.77
2022-08-25T04:04:26.859Z,62.89
2022-08-25T04:05:26.898Z,62.61
2022-08-25T04:06:26.872Z,62.75
2022-08-25T04:07:26.871Z,62.36
2022-08-25T04:08:26.858Z,61.88
2022-08-25T04:09:26.850Z,61.46
2022-08-25T04:10:26.857Z,61.8
2022-08-25T04:11:26.855Z,61.54
2022-08-25T04:12:26.867Z,61.62
2022-08-25T04:13:26.846Z,61.79
2022-08-25T04:14:26.864Z,61.68
2022-08-25T04:15:30.149Z,62.27
2022-08-25T04:16:26.957Z,61.99
2022-08-25T04:17:26.842Z,61.81
2022-08-25T04:18:26.856Z,61.92
2022-08-25T04:19:26.854Z,61.68
2022-08-25T04:20:26.841Z,61.44
2022-08-25T04:21:26.835Z,62.62
2022-08-25T04:22:26.840Z,61.73
2022-08-25T04:23:26.848Z,61.21
2022-08-25T04:24:26.837Z,60.67
2022-08-25T04:25:26.838Z,61.89
2022-08-25T04:26:26.836Z,59.38
2022-08-25T04:27:26.835Z,60.99
2022-08-25T04:28:26.850Z,62.1
2022-08-25T04:29:26.841Z,62.57
2022-08-25T04:30:26.834Z,62.94
2022-08-25T04:31:26.912Z,62.38
2022-08-25T04:32:26.830Z,62.39
2022-08-25T04:33:26.826Z,62.96
2022-08-25T04:34:31.014Z,62.42
2022-08-25T04:35:26.837Z,62.03
2022-08-25T04:36:26.837Z,61.7
2022-08-25T04:37:26.824Z,61.72
2022-08-25T04:38:26.824Z,61.76
2022-08-25T04:39:26.824Z,61.87
2022-08-25T04:40:29.001Z,62
2022-08-25T04:41:26.833Z,61.56
2022-08-25T04:42:26.818Z,62.56
2022-08-25T04:43:26.820Z,62.78
2022-08-25T04:44:26.812Z,62.78
2022-08-25T04:45:26.849Z,62.91
2022-08-25T04:46:26.806Z,63.14
2022-08-25T04:47:27.127Z,63.65
2022-08-25T04:48:26.805Z,63.54
2022-08-25T04:49:26.803Z,63.76
2022-08-25T04:50:26.820Z,63.7
2022-08-25T04:51:26.800Z,63.71
2022-08-25T04:52:26.812Z,64.12
2022-08-25T04:53:26.802Z,64.26
2022-08-25T04:54:26.801Z,63.81
2022-08-25T04:55:26.834Z,64.72
2022-08-25T04:56:26.800Z,64.58
2022-08-25T04:57:26.805Z,64.47
2022-08-25T04:58:26.795Z,64.58
2022-08-25T04:59:27.347Z,64.07
2022-08-25T05:00:26.812Z,63.86
2022-08-25T05:01:26.852Z,64.15
2022-08-25T05:02:26.792Z,63.59
2022-08-25T05:03:26.810Z,63.52
2022-08-25T05:04:28.483Z,62.84
2022-08-25T05:05:26.783Z,63.21
2022-08-25T05:06:26.808Z,63.11
2022-08-25T05:07:26.801Z,63.23
2022-08-25T05:08:26.790Z,63.12
2022-08-25T05:09:26.796Z,62.88
2022-08-25T05:10:26.784Z,62.8
2022-08-25T05:11:26.787Z,61.7
2022-08-25T05:12:26.782Z,59.4
2022-08-25T05:13:26.783Z,62.49
2022-08-25T05:14:26.926Z,63.28
2022-08-25T05:15:26.810Z,63.25
2022-08-25T05:16:26.812Z,62.74
2022-08-25T05:17:26.780Z,63.66
2022-08-25T05:18:26.768Z,63.19
2022-08-25T05:19:26.788Z,64.99
2022-08-25T05:20:26.773Z,65.55
2022-08-25T05:21:26.784Z,65.22
2022-08-25T05:22:26.767Z,65.76
2022-08-25T05:23:26.772Z,65.55
2022-08-25T05:24:26.786Z,65.24
2022-08-25T05:25:26.783Z,65
2022-08-25T05:26:26.768Z,63.92
2022-08-25T05:27:26.775Z,64.92
2022-08-25T05:28:26.764Z,65
2022-08-25T05:29:26.775Z,64.41
2022-08-25T05:30:26.761Z,64.88
2022-08-25T05:31:26.839Z,65.54
2022-08-25T05:32:26.754Z,64.81
2022-08-25T05:33:26.762Z,64.88
2022-08-25T05:34:26.768Z,64.89
2022-08-25T05:35:26.767Z,65.06
2022-08-25T05:36:26.749Z,64.72
2022-08-25T05:37:26.745Z,64.34
2022-08-25T05:38:26.747Z,63.57
2022-08-25T05:39:26.947Z,63.27
2022-08-25T05:40:26.833Z,63.59
2022-08-25T05:41:26.759Z,64.15
2022-08-25T05:42:26.746Z,64.44
2022-08-25T05:43:26.759Z,65.02
2022-08-25T05:44:26.744Z,65.53
2022-08-25T05:45:26.826Z,65.7
2022-08-25T05:46:26.740Z,65.97
2022-08-25T05:47:26.755Z,65.64
2022-08-25T05:48:26.758Z,65.97
2022-08-25T05:49:26.743Z,65.86
2022-08-25T05:50:26.738Z,66.28
2022-08-25T05:51:26.819Z,65.32
2022-08-25T05:52:26.736Z,64.43
2022-08-25T05:53:26.742Z,64.75
2022-08-25T05:54:26.731Z,64.72
2022-08-25T05:55:26.730Z,65.79
2022-08-25T05:56:26.733Z,64.28
2022-08-25T05:57:26.729Z,63.65
2022-08-25T05:58:26.743Z,63.32
2022-08-25T05:59:26.739Z,64.45
2022-08-25T06:00:26.783Z,63.65
2022-08-25T06:01:26.853Z,63.95
2022-08-25T06:02:26.732Z,61.73
2022-08-25T06:03:26.757Z,62.06
2022-08-25T06:04:26.743Z,61.53
2022-08-25T06:05:26.723Z,63.27
2022-08-25T06:06:26.744Z,62.7
2022-08-25T06:07:27.072Z,63.8
2022-08-25T06:08:26.713Z,63.25
2022-08-25T06:09:26.718Z,63
2022-08-25T06:10:26.743Z,62.08
2022-08-25T06:11:26.726Z,62.89
2022-08-25T06:12:26.714Z,62.9
2022-08-25T06:13:28.047Z,62.25
2022-08-25T06:14:26.705Z,62.67
2022-08-25T06:15:28.027Z,61.86
2022-08-25T06:16:26.796Z,61.88
2022-08-25T06:17:26.705Z,61.62
2022-08-25T06:18:26.704Z,61.65
2022-08-25T06:19:26.699Z,61.3
2022-08-25T06:20:26.698Z,60.82
2022-08-25T06:21:26.712Z,60.88
2022-08-25T06:22:26.716Z,60.99
2022-08-25T06:23:26.694Z,61.47
2022-08-25T06:24:26.696Z,61.04
2022-08-25T06:25:26.694Z,61.15
2022-08-25T06:26:26.694Z,60.46
2022-08-25T06:27:26.709Z,60.72
2022-08-25T06:28:26.696Z,60.14
2022-08-25T06:29:26.693Z,60.75
2022-08-25T06:30:29.014Z,60.48
2022-08-25T06:31:26.741Z,60.76
2022-08-25T06:32:26.705Z,60.12
2022-08-25T06:33:26.684Z,60.31
2022-08-25T06:34:26.688Z,59.8
2022-08-25T06:35:26.679Z,59.52
2022-08-25T06:36:26.679Z,60.15
2022-08-25T06:37:26.698Z,60.11
2022-08-25T06:38:26.684Z,58.89
2022-08-25T06:39:26.693Z,59.51
2022-08-25T06:40:26.820Z,60.71
2022-08-25T06:41:36.636Z,59.61
2022-08-25T06:42:26.690Z,61.07
2022-08-25T06:43:26.678Z,62.55
2022-08-25T06:44:26.687Z,62.58
2022-08-25T06:45:26.673Z,62.33
2022-08-25T06:46:34.670Z,62.17
2022-08-25T06:47:26.756Z,62.2
2022-08-25T06:48:26.673Z,61.34
2022-08-25T06:49:26.689Z,61.61
2022-08-25T06:50:26.667Z,61.93
2022-08-25T06:51:26.672Z,61.86
2022-08-25T06:52:29.102Z,61.77
2022-08-25T06:53:26.666Z,61.92
2022-08-25T06:54:26.676Z,63.13
2022-08-25T06:55:26.704Z,62.83
2022-08-25T06:56:26.741Z,63.21
2022-08-25T06:57:26.662Z,64.61
2022-08-25T06:58:26.672Z,64.3
2022-08-25T06:59:26.670Z,65.22
2022-08-25T07:00:30.534Z,65.62
2022-08-25T07:01:26.770Z,66.9
2022-08-25T07:02:26.758Z,66.26
2022-08-25T07:03:26.679Z,66.85
2022-08-25T07:04:26.667Z,66.54
2022-08-25T07:05:40.801Z,65.64
2022-08-25T07:06:26.648Z,65.69
2022-08-25T07:07:26.646Z,66.48
2022-08-25T07:08:26.659Z,65.57
2022-08-25T07:09:26.646Z,65.25
2022-08-25T07:10:26.646Z,65.2
2022-08-25T07:11:26.642Z,66.25
2022-08-25T07:12:26.643Z,65.33
2022-08-25T07:13:26.657Z,65.62
2022-08-25T07:14:26.637Z,65.08
2022-08-25T07:15:26.639Z,65.12
2022-08-25T07:16:29.655Z,63.44
2022-08-25T07:17:26.641Z,63.41
2022-08-25T07:18:26.703Z,64.03
2022-08-25T07:19:26.638Z,63.72
2022-08-25T07:20:26.661Z,64.17
2022-08-25T07:21:31.215Z,64.58
2022-08-25T07:22:26.637Z,63.88
2022-08-25T07:23:26.633Z,64.04
2022-08-25T07:24:26.624Z,63.79
2022-08-25T07:25:26.624Z,63.75
2022-08-25T07:26:37.334Z,63.56
2022-08-25T07:27:26.629Z,63.69
2022-08-25T07:28:26.627Z,63.6
2022-08-25T07:29:32.705Z,63.36
2022-08-25T07:30:26.643Z,62.91
2022-08-25T07:31:29.447Z,63.04
2022-08-25T07:32:26.621Z,62.73
2022-08-25T07:33:26.623Z,62.18
2022-08-25T07:34:26.616Z,62.24
2022-08-25T07:35:26.631Z,62.12
2022-08-25T07:36:26.616Z,61.08
2022-08-25T07:37:47.858Z,61.02
2022-08-25T07:38:26.607Z,60.01
2022-08-25T07:39:26.629Z,60.2
2022-08-25T07:40:26.730Z,61.81
2022-08-25T07:41:26.610Z,63.01
2022-08-25T07:42:26.602Z,62.08
2022-08-25T07:43:26.609Z,63.21
2022-08-25T07:44:28.039Z,62.15
2022-08-25T07:45:26.617Z,62.1
2022-08-25T07:46:26.682Z,63.25
2022-08-25T07:47:26.657Z,62.87
2022-08-25T07:48:26.597Z,62.73
2022-08-25T07:49:26.613Z,62.51
2022-08-25T07:50:26.597Z,62.46
2022-08-25T07:52:26.701Z,62.38
2022-08-25T07:53:26.617Z,61.99
2022-08-25T07:54:33.827Z,63.01
2022-08-25T07:55:27.118Z,62.31
2022-08-25T07:56:26.598Z,61.73
2022-08-25T07:57:26.597Z,61.87
2022-08-25T07:58:26.592Z,63.05
2022-08-25T07:59:26.602Z,63.04
2022-08-25T08:00:26.581Z,65.43
2022-08-25T08:01:26.727Z,64.46
2022-08-25T08:02:26.662Z,63.7
2022-08-25T08:03:44.588Z,64.78
2022-08-25T08:04:26.592Z,63.73
2022-08-25T08:05:26.600Z,64.43
2022-08-25T08:06:26.577Z,62.63
2022-08-25T08:07:42.291Z,63.04
2022-08-25T08:08:26.582Z,63.54
2022-08-25T08:09:26.578Z,63.03
2022-08-25T08:10:54.140Z,63.04
2022-08-25T08:11:26.573Z,64.06
2022-08-25T08:12:26.576Z,63.58
2022-08-25T08:13:26.575Z,62.78
2022-08-25T08:14:26.588Z,62.94
2022-08-25T08:15:29.733Z,62.53
2022-08-25T08:16:26.685Z,62.81
2022-08-25T08:17:26.581Z,62.92
2022-08-25T08:18:26.583Z,62.46
2022-08-25T08:19:26.572Z,62.38
2022-08-25T08:20:26.561Z,62.55
2022-08-25T08:21:26.577Z,62.28
2022-08-25T08:22:26.558Z,61.96
2022-08-25T08:23:26.561Z,62.22
2022-08-25T08:24:44.309Z,62.17
2022-08-25T08:25:27.638Z,62.12
2022-08-25T08:26:36.349Z,61.68
2022-08-25T08:27:26.557Z,62.06
2022-08-25T08:28:26.554Z,61.7
2022-08-25T08:29:26.553Z,61.6
2022-08-25T08:30:26.707Z,62.01
2022-08-25T08:31:26.617Z,62.28
2022-08-25T08:32:35.446Z,62.17
2022-08-25T08:33:26.546Z,62.09
2022-08-25T08:34:26.545Z,62.6
2022-08-25T08:35:26.579Z,62.53
2022-08-25T08:36:26.570Z,61.63
2022-08-25T08:37:26.552Z,61.67
2022-08-25T08:38:27.155Z,62.32
2022-08-25T08:39:26.544Z,63.73
2022-08-25T08:40:26.747Z,63.47
2022-08-25T08:41:26.549Z,63.72
2022-08-25T08:42:26.544Z,63.64
2022-08-25T08:43:28.335Z,63.69
2022-08-25T08:44:26.529Z,63.2
2022-08-25T08:45:26.534Z,62.91
2022-08-25T08:46:26.626Z,62.17
2022-08-25T08:47:26.527Z,62.43
2022-08-25T08:48:26.528Z,62
2022-08-25T08:49:26.779Z,62.22
2022-08-25T08:50:30.723Z,61.83
2022-08-25T08:51:32.926Z,61.85
2022-08-25T08:52:26.529Z,61.84
2022-08-25T08:53:26.540Z,61.83
2022-08-25T08:54:26.564Z,61.75
2022-08-25T08:55:26.524Z,62.24
2022-08-25T08:56:30.986Z,62.11
2022-08-25T08:57:26.524Z,61.8
2022-08-25T08:58:26.720Z,62
2022-08-25T08:59:30.296Z,62.17
2022-08-25T09:00:26.543Z,62.01
2022-08-25T09:01:26.616Z,61.61
2022-08-25T09:02:38.741Z,61.52
2022-08-25T09:03:26.594Z,61.32
2022-08-25T09:04:26.530Z,60.94
2022-08-25T09:05:26.525Z,61.3
2022-08-25T09:06:26.518Z,61.09
2022-08-25T09:07:26.511Z,60.71
2022-08-25T09:08:26.623Z,60.39
2022-08-25T09:09:26.521Z,60.59
2022-08-25T09:10:26.537Z,60.56
2022-08-25T09:11:26.666Z,60.7
2022-08-25T09:12:26.504Z,60.56
2022-08-25T09:13:26.500Z,60.34
2022-08-25T09:14:30.236Z,60.11
2022-08-25T09:15:26.505Z,60.26
2022-08-25T09:16:33.985Z,60.64
2022-08-25T09:17:26.511Z,60.35
2022-08-25T09:18:26.495Z,60.36
2022-08-25T09:19:26.514Z,60.18
2022-08-25T09:20:26.487Z,60
2022-08-25T09:21:26.527Z,60.76
2022-08-25T09:22:35.256Z,60.54
2022-08-25T09:23:26.487Z,61.13
2022-08-25T09:24:26.488Z,61.33
2022-08-25T09:25:48.739Z,60.77
2022-08-25T09:26:26.492Z,61.37
2022-08-25T09:27:26.502Z,60.49
2022-08-25T09:28:26.487Z,60.12
2022-08-25T09:29:26.498Z,59.21
2022-08-25T09:30:26.483Z,58.17
2022-08-25T09:31:29.508Z,61.13
2022-08-25T09:32:31.169Z,60.19
2022-08-25T09:33:26.490Z,61.25
2022-08-25T09:34:26.495Z,61.72
2022-08-25T09:35:26.485Z,60.94
2022-08-25T09:36:26.470Z,61.56
2022-08-25T09:37:26.480Z,63.37
2022-08-25T09:38:26.511Z,62.77
2022-08-25T09:39:26.582Z,62.56
2022-08-25T09:40:26.927Z,63.87
2022-08-25T09:41:26.489Z,64.04
2022-08-25T09:42:26.484Z,63.08
2022-08-25T09:43:26.489Z,62.97
2022-08-25T09:44:26.483Z,62.32
2022-08-25T09:45:26.504Z,62.49
2022-08-25T09:46:26.934Z,62.58
2022-08-25T09:47:26.489Z,62.62
2022-08-25T09:48:26.480Z,62.37
2022-08-25T09:49:26.476Z,62.12
2022-08-25T09:50:26.498Z,61.64
2022-08-25T09:51:26.476Z,61.81
2022-08-25T09:52:26.472Z,61.17
2022-08-25T09:53:26.484Z,61.01
2022-08-25T09:54:37.743Z,61.34
2022-08-25T09:55:26.609Z,62
2022-08-25T09:56:26.476Z,62.32
2022-08-25T09:57:26.472Z,62.81
2022-08-25T09:58:26.467Z,63.29
2022-08-25T09:59:34.851Z,63.61
2022-08-25T10:00:26.471Z,64.08
2022-08-25T10:01:26.513Z,64.15
2022-08-25T10:02:26.462Z,64.14
2022-08-25T10:03:26.462Z,64.61
2022-08-25T10:04:26.460Z,64.82
2022-08-25T10:05:26.549Z,64.57
2022-08-25T10:06:26.461Z,64.42
2022-08-25T10:07:26.459Z,64.28
2022-08-25T10:08:26.461Z,65.01
2022-08-25T10:09:26.485Z,63.82
2022-08-25T10:10:26.458Z,65.05
2022-08-25T10:11:26.456Z,62.85
2022-08-25T10:12:27.923Z,62.68
2022-08-25T10:13:26.473Z,62.1
2022-08-25T10:14:26.445Z,61.84
2022-08-25T10:15:30.081Z,61.23
2022-08-25T10:16:30.840Z,59.68
2022-08-25T10:17:27.740Z,60.67
2022-08-25T10:18:26.444Z,59.29
2022-08-25T10:19:26.447Z,59.76
2022-08-25T10:20:26.444Z,60.81
2022-08-25T10:21:26.444Z,60.8
2022-08-25T10:22:26.462Z,62.91
2022-08-25T10:23:26.463Z,61.48
2022-08-25T10:24:26.455Z,61.61
2022-08-25T10:25:29.250Z,62.85
2022-08-25T10:26:26.445Z,63.31
2022-08-25T10:27:28.628Z,63.44
2022-08-25T10:28:26.446Z,65.69
2022-08-25T10:29:26.432Z,65.82
2022-08-25T10:30:26.429Z,65.81
2022-08-25T10:31:26.467Z,65.85
2022-08-25T10:32:26.427Z,65.99
2022-08-25T10:33:26.442Z,66.08
2022-08-25T10:34:26.424Z,65.67
2022-08-25T10:35:26.430Z,65.63
2022-08-25T10:36:26.431Z,65.26
2022-08-25T10:37:26.433Z,64.97
2022-08-25T10:38:27.229Z,64.7
2022-08-25T10:39:34.487Z,64.66
2022-08-25T10:40:26.525Z,64.48
2022-08-25T10:41:26.421Z,64.28
2022-08-25T10:42:26.416Z,63.49
2022-08-25T10:43:26.414Z,63.32
2022-08-25T10:44:26.418Z,63.15
2022-08-25T10:45:26.424Z,62.8
2022-08-25T10:46:27.183Z,62.81
2022-08-25T10:47:26.418Z,62.19
2022-08-25T10:48:26.416Z,61.94
2022-08-25T10:49:26.424Z,61.86
2022-08-25T10:50:27.601Z,62
2022-08-25T10:51:26.401Z,61.5
2022-08-25T10:52:26.402Z,61.31
2022-08-25T10:53:26.422Z,61.07
2022-08-25T10:54:26.430Z,60.9
2022-08-25T10:55:26.412Z,60.62
2022-08-25T10:56:26.411Z,60.4
2022-08-25T10:57:26.403Z,60.11
2022-08-25T10:58:26.409Z,59.74
2022-08-25T10:59:26.396Z,59.8
2022-08-25T11:00:31.302Z,60.24
2022-08-25T11:01:28.659Z,59.48
2022-08-25T11:02:26.389Z,59.86
2022-08-25T11:03:26.797Z,60.42
2022-08-25T11:04:26.396Z,60.15
2022-08-25T11:05:26.446Z,60.28
2022-08-25T11:06:26.392Z,60.21
2022-08-25T11:07:26.389Z,60.12
2022-08-25T11:08:26.404Z,59.67
2022-08-25T11:09:26.391Z,59.79
2022-08-25T11:10:26.395Z,60.25
2022-08-25T11:11:26.384Z,59.05
2022-08-25T11:12:26.407Z,58.44
2022-08-25T11:13:26.385Z,57.67
2022-08-25T11:14:26.395Z,58.5
2022-08-25T11:15:26.375Z,58.76
2022-08-25T11:16:26.459Z,59.57
2022-08-25T11:17:26.383Z,59.08
2022-08-25T11:18:26.382Z,60.67
2022-08-25T11:19:26.387Z,62.48
2022-08-25T11:20:27.362Z,63.68
2022-08-25T11:21:26.394Z,63.46
2022-08-25T11:22:26.373Z,64.38
2022-08-25T11:23:26.367Z,64.72
2022-08-25T11:24:26.393Z,65.55
2022-08-25T11:25:26.395Z,64.83
2022-08-25T11:26:31.013Z,64.8
2022-08-25T11:27:26.487Z,66.05
2022-08-25T11:28:26.382Z,64.96
2022-08-25T11:29:26.362Z,66.05
2022-08-25T11:30:26.401Z,65.48
2022-08-25T11:31:26.378Z,66.43
2022-08-25T11:32:26.357Z,64.05
